• Join FlightAware (Why Join?)
  • Login
  • US Flag 
01:19PM EST


 

Airport Tracker/Info


-or-


 

Live Flight TrackerFlight Track Log ✈ N770NC ✈ 07-Jun-2013 ✈ KORD - KCVG

Flight Track Log - Related Links

Times and Time Zones

All times are in EDT time to prevent confusion due to time zone crossing. See the N770NC flight status page for this flight to view local times or setup timezone preferences in your user account.

Time Position Orientation Groundspeed Altitude Reporting Facility
EDT Latitude Longitude Course Direction KTS MPH feet Rate Location/Type
01:30AM 41.8753 -87.8700 139° Southeast 287 330 11,600  Level Chicago Center
01:31AM 41.7933 -87.8411 165° South 301 346 13,800 1,500 Climbing Chicago Center
01:32AM 41.7053 -87.7975 160° South 351 404 14,600 1,260 Climbing Chicago Center
01:33AM 41.6158 -87.7192 147° Southeast 381 438 16,400 1,680 Climbing Chicago Center
01:34AM 41.5250 -87.6358 146° Southeast 391 450 18,100 1,800 Climbing Chicago Center
01:35AM 41.5086 -87.3576 139° Southeast  Level Estimated
01:35AM 41.4336 -87.5483 144° Southeast 400 460 20,000  Level Chicago Center
01:36AM 41.3397 -87.4592 144° Southeast 411 473 21,700 1,320 Climbing Chicago Center
01:37AM 41.2433 -87.3647 144° Southeast 427 491 22,700 600 Climbing Chicago Center
01:38AM 41.1433 -87.2567 141° Southeast 457 526 23,000 120 Climbing Chicago Center
01:39AM 41.0447 -87.1481 140° Southeast 463 533 23,000  Level Chicago Center
01:40AM 40.9461 -87.0378 140° Southeast 464 534 23,000  Level Chicago Center
01:41AM 40.8481 -86.9275 140° Southeast 465 535 23,000  Level Chicago Center
01:42AM 40.7478 -86.8186 141° Southeast 468 539 23,000  Level Chicago Center
01:43AM 40.6428 -86.7028 140° Southeast 465 535 23,000  Level Chicago Center
01:44AM 40.5431 -86.5925 140° Southeast 468 539 23,000  Level Chicago Center
01:45AM 40.4433 -86.4836 140° Southeast 467 537 23,000  Level Chicago Center
01:46AM 40.3439 -86.3739 140° Southeast 468 539 23,000  Level Chicago Center
01:47AM 40.2464 -86.2631 139° Southeast 465 535 23,000  Level Chicago Center
01:48AM 40.1414 -86.1650 144° Southeast 470 541 23,000  Level Chicago Center
01:49AM 40.0239 -86.0989 157° South 462 532 23,000 -600 Level Chicago Center
01:50AM 39.9072 -86.0319 156° South 459 528 21,900 -1,320 Descending Indianapolis Center
01:51AM 39.8075 -85.9331 143° Southeast 447 514 20,400 -2,640 Descending Indianapolis Center
01:52AM 39.7286 -85.8200 132° Southeast 421 484 16,600 -2,580 Descending Indianapolis Center
01:53AM 39.6583 -85.6972 127° Southeast 423 487 15,200 -1,680 Descending Indianapolis Center
01:54AM 39.5953 -85.5764 124° Southeast 409 471 13,300 -1,680 Descending Indianapolis Center
01:55AM 39.5333 -85.4578 124° Southeast 401 461 11,900 -1,020 Descending Indianapolis Center
01:56AM 39.4753 -85.3581 127° Southeast 356 410 11,300 -960 Descending Indianapolis Center
01:57AM 39.4039 -85.3000 148° Southeast 309 356 10,000 -1,620 Descending Indianapolis Center
01:58AM 39.3358 -85.2469 149° Southeast 290 334 8,100 -1,680 Descending Indianapolis Center
01:59AM 39.2672 -85.1975 151° Southeast 284 327 6,700 -1,200 Descending Indianapolis Center
02:00AM 39.1961 -85.1506 153° Southeast 286 329 5,800 -900 Descending Indianapolis Center
02:01AM 39.1267 -85.1053 153° Southeast 282 325 5,000 -360 Descending Indianapolis Center
02:02AM 39.0681 -85.0506 144° Southeast 285 328 5,100 -60 Climbing Indianapolis Center
02:03AM 39.0444 -84.9631 109° East 270 311 4,900 -720 Descending Indianapolis Center
02:04AM 39.0472 -84.8811 87° East 241 277 3,700 -720 Descending Indianapolis Center
02:05AM 39.0494 -84.8003 88° East 239 275 3,500 -960 Descending Indianapolis Center
02:06AM 39.0500 -84.7500 89° East 118 136 1,700 -1,140 Descending Cincinnati TRACON
02:07AM 39.0500 -84.7000 90° East 112 129 1,100 -600 Descending Cincinnati TRACON
02:09AM 39.0333 -84.6667 90° East  Level FlightAware Approximate